Аэропорт: Нижневартовск. Нижневартовск

ICAO: USNN

METAR:
2020-08-09 22:30:00
USNN 092230Z 12003MPS CAVOK 19/15 Q1005 R03/0///65 NOSIG RMK QFE750
METAR:
2020-08-09 20:00:00
TAF USNN 092000Z 0921/1021 11003MPS 5000 BR FEW005 SCT017 TEMPO 0921/1001 VRB01MPS 0250 FG VV002 BECMG 1001/1003 9999 SCT020 BECMG 1003/1005 14003G09MPS SCT017CB BKN030